Time;durP1;ratioP1;P1;durP2;ratioP2;P2;SDS_P1;SDS_P2;PMS_P1;PMS_P2;Temp;Humidity;BMP_temperature;BMP_pressure;BME280_temperature;BME280_humidity;BME280_pressure;Samples;Min_cycle;Max_cycle;Signal;HPM_P1;HPM_P2
2022/09/02 00:01:18;;;;;;;3.25;2.58;;;14.60;92.40;;;;;;5072016;28;20191;-69
2022/09/02 00:03:48;;;;;;;4.57;2.75;;;14.50;92.50;;;;;;5071921;28;20196;-69
2022/09/02 00:06:18;;;;;;;2.92;2.20;;;14.50;92.50;;;;;;5071089;28;20195;-70
2022/09/02 00:08:47;;;;;;;4.18;2.70;;;14.40;92.60;;;;;;5088648;28;20230;-70
2022/09/02 00:11:18;;;;;;;3.35;2.42;;;14.40;92.80;;;;;;5077606;28;20219;-71
2022/09/02 00:13:48;;;;;;;4.78;2.38;;;14.30;92.70;;;;;;5071785;28;20191;-69
2022/09/02 00:16:17;;;;;;;3.88;2.30;;;14.30;92.70;;;;;;5071084;28;20557;-69
2022/09/02 00:18:47;;;;;;;3.30;2.80;;;14.30;92.80;;;;;;5085290;28;20382;-69
2022/09/02 00:21:18;;;;;;;3.95;2.75;;;14.20;92.90;;;;;;5091938;28;20190;-68
2022/09/02 00:23:47;;;;;;;3.25;2.78;;;14.20;92.90;;;;;;5091850;28;20194;-68
2022/09/02 00:26:16;;;;;;;2.83;2.47;;;14.10;93.00;;;;;;5090051;28;20687;-69
2022/09/02 00:28:45;;;;;;;3.90;2.30;;;14.10;93.00;;;;;;5091873;28;20222;-70
2022/09/02 00:31:20;;;;;;;4.50;2.97;;;14.10;93.10;;;;;;5093692;28;20202;-70
2022/09/02 00:33:50;;;;;;;2.58;2.38;;;14.10;93.10;;;;;;5094367;28;20214;-69
2022/09/02 00:36:20;;;;;;;2.83;2.53;;;14.00;93.10;;;;;;5083960;28;20194;-69
2022/09/02 00:38:50;;;;;;;3.88;2.60;;;14.00;93.20;;;;;;5075105;28;20576;-69
2022/09/02 00:41:21;;;;;;;5.68;2.90;;;13.90;93.10;;;;;;5073404;28;20199;-69
2022/09/02 00:43:53;;;;;;;4.68;2.60;;;13.90;93.10;;;;;;5073283;28;20195;-69
2022/09/02 00:46:23;;;;;;;3.22;2.28;;;13.90;93.20;;;;;;5075079;28;20187;-70
2022/09/02 00:48:58;;;;;;;2.80;2.50;;;13.80;93.20;;;;;;5073732;28;20219;-70
2022/09/02 00:51:34;;;;;;;4.45;2.60;;;13.90;93.30;;;;;;5073667;28;20203;-71
2022/09/02 00:54:03;;;;;;;5.00;2.20;;;13.80;93.30;;;;;;5075844;28;20191;-69
2022/09/02 00:56:33;;;;;;;3.60;2.60;;;13.80;93.40;;;;;;5077606;28;20607;-69
2022/09/02 00:59:02;;;;;;;5.03;2.40;;;13.80;93.40;;;;;;5074401;28;20265;-70
2022/09/02 01:01:31;;;;;;;3.15;2.63;;;13.80;93.50;;;;;;5074146;28;20649;-70
2022/09/02 01:04:00;;;;;;;3.33;2.38;;;13.70;93.50;;;;;;5073495;28;20210;-70
2022/09/02 01:06:32;;;;;;;3.38;2.42;;;13.70;93.60;;;;;;5073523;28;20209;-70
2022/09/02 01:09:07;;;;;;;2.70;2.03;;;13.60;93.70;;;;;;5072098;28;20696;-69
2022/09/02 01:11:40;;;;;;;3.42;2.47;;;13.60;93.80;;;;;;5084512;28;20209;-69
2022/09/02 01:14:11;;;;;;;3.40;2.20;;;13.60;93.80;;;;;;5078441;28;20556;-69
2022/09/02 01:16:43;;;;;;;3.30;2.53;;;13.50;93.70;;;;;;5073294;28;20195;-70
2022/09/02 01:19:23;;;;;;;3.65;2.60;;;13.50;93.80;;;;;;5072622;28;20534;-70
2022/09/02 01:21:55;;;;;;;3.08;2.40;;;13.40;93.70;;;;;;5074255;28;20563;-70
2022/09/02 01:24:27;;;;;;;3.55;2.60;;;13.40;93.80;;;;;;5074449;28;20200;-70
2022/09/02 01:26:58;;;;;;;3.83;2.33;;;13.40;93.90;;;;;;5076858;28;20199;-70
2022/09/02 01:29:28;;;;;;;5.05;2.80;;;13.30;93.90;;;;;;5089953;28;20187;-71
2022/09/02 01:31:57;;;;;;;4.63;2.83;;;13.30;94.00;;;;;;5072782;28;20218;-70
2022/09/02 01:34:26;;;;;;;4.55;2.58;;;13.30;94.00;;;;;;5072953;28;20187;-70
2022/09/02 01:36:56;;;;;;;3.13;2.85;;;13.20;93.90;;;;;;5089185;28;20190;-69
2022/09/02 01:39:25;;;;;;;4.25;2.70;;;13.20;94.00;;;;;;5094333;28;20656;-70
2022/09/02 01:41:54;;;;;;;6.32;2.58;;;13.20;94.10;;;;;;5075854;28;20278;-71
2022/09/02 01:44:26;;;;;;;3.90;2.50;;;13.20;94.10;;;;;;5086120;28;20676;-71
2022/09/02 01:46:56;;;;;;;5.13;2.83;;;13.20;94.10;;;;;;5091019;28;20671;-71
2022/09/02 01:49:24;;;;;;;5.10;3.70;;;13.10;94.30;;;;;;5087069;28;20199;-71
2022/09/02 01:51:56;;;;;;;5.93;3.95;;;13.10;94.20;;;;;;5072798;28;20230;-69
2022/09/02 01:54:25;;;;;;;6.85;5.10;;;13.10;94.20;;;;;;5073736;28;20211;-69
2022/09/02 01:56:54;;;;;;;4.97;2.83;;;13.00;94.40;;;;;;5086552;28;20207;-70
2022/09/02 01:59:24;;;;;;;3.65;2.80;;;13.00;94.40;;;;;;5072382;28;20571;-69
2022/09/02 02:01:53;;;;;;;7.97;4.90;;;13.00;94.50;;;;;;5071609;28;20199;-69
2022/09/02 02:04:23;;;;;;;9.65;5.50;;;13.00;94.50;;;;;;5088333;28;20570;-70
2022/09/02 02:06:56;;;;;;;7.65;5.43;;;13.00;94.90;;;;;;5092523;28;20213;-72
2022/09/02 02:09:25;;;;;;;7.63;5.28;;;13.00;94.80;;;;;;5090618;28;20206;-69
2022/09/02 02:11:54;;;;;;;7.90;5.25;;;13.00;94.90;;;;;;5082055;28;20238;-69
2022/09/02 02:14:24;;;;;;;7.90;4.88;;;13.00;95.00;;;;;;5072021;28;20210;-69
2022/09/02 02:16:53;;;;;;;8.57;4.82;;;12.90;95.00;;;;;;5071579;28;20218;-70
2022/09/02 02:19:22;;;;;;;5.78;4.57;;;12.90;95.00;;;;;;5071794;28;20233;-70
2022/09/02 02:21:51;;;;;;;7.60;5.15;;;12.90;95.00;;;;;;5072355;28;20226;-69
2022/09/02 02:24:21;;;;;;;7.73;5.13;;;12.90;95.00;;;;;;5081672;28;20207;-69
2022/09/02 02:26:50;;;;;;;8.25;5.50;;;12.80;95.00;;;;;;5093189;28;20207;-69
2022/09/02 02:29:21;;;;;;;12.32;7.72;;;12.80;95.10;;;;;;5088852;28;20209;-69
2022/09/02 02:31:50;;;;;;;8.70;5.78;;;12.70;95.10;;;;;;5071727;28;20210;-70
2022/09/02 02:34:19;;;;;;;5.28;4.57;;;12.60;95.20;;;;;;5072957;28;20226;-70
2022/09/02 02:36:48;;;;;;;7.00;4.60;;;12.60;95.30;;;;;;5074077;28;20673;-71
2022/09/02 02:39:17;;;;;;;9.70;5.97;;;12.60;95.30;;;;;;5076276;28;20207;-70
2022/09/02 02:41:48;;;;;;;7.45;5.22;;;12.60;95.20;;;;;;5066071;28;20221;-70
2022/09/02 02:44:17;;;;;;;5.63;4.43;;;12.50;95.40;;;;;;5075618;28;20650;-71
2022/09/02 02:46:46;;;;;;;6.95;4.85;;;12.50;95.40;;;;;;5060552;28;21101;-69
2022/09/02 02:49:15;;;;;;;7.00;4.53;;;12.50;95.60;;;;;;5064880;28;20329;-69
2022/09/02 02:51:44;;;;;;;6.20;4.40;;;12.50;95.70;;;;;;5069559;28;20218;-69
2022/09/02 02:54:13;;;;;;;5.40;4.32;;;12.50;95.70;;;;;;5066878;28;20608;-71
2022/09/02 02:56:42;;;;;;;7.50;4.35;;;12.50;95.70;;;;;;5085730;28;20198;-69
2022/09/02 02:59:12;;;;;;;4.55;4.03;;;12.40;95.70;;;;;;5092998;28;20217;-70
2022/09/02 03:01:41;;;;;;;5.90;4.20;;;12.40;95.70;;;;;;5091281;28;20203;-69
2022/09/02 03:04:10;;;;;;;4.80;4.20;;;12.40;95.80;;;;;;5091157;28;20206;-69
2022/09/02 03:06:39;;;;;;;7.93;4.28;;;12.40;95.80;;;;;;5062601;28;20214;-72
2022/09/02 03:09:08;;;;;;;8.85;4.63;;;12.30;95.90;;;;;;5072098;28;20219;-71
2022/09/02 03:11:38;;;;;;;5.90;4.22;;;12.30;96.00;;;;;;5071169;28;20198;-70
2022/09/02 03:14:08;;;;;;;4.73;4.13;;;12.30;96.00;;;;;;5070631;28;20223;-70
2022/09/02 03:16:38;;;;;;;6.45;4.07;;;12.20;96.00;;;;;;5058650;28;20214;-70
2022/09/02 03:19:08;;;;;;;6.22;4.50;;;12.20;96.10;;;;;;5060486;28;20241;-70
2022/09/02 03:21:37;;;;;;;5.47;4.40;;;12.10;96.20;;;;;;5064609;28;20564;-70
2022/09/02 03:24:10;;;;;;;5.63;4.10;;;12.10;96.20;;;;;;5076490;28;20199;-70
2022/09/02 03:26:41;;;;;;;6.17;4.30;;;12.10;96.20;;;;;;5066331;28;20198;-70
2022/09/02 03:29:12;;;;;;;6.90;4.87;;;12.10;96.30;;;;;;5060857;28;20195;-69
2022/09/02 03:31:42;;;;;;;5.68;4.68;;;12.10;96.30;;;;;;5060094;28;20225;-70
2022/09/02 03:34:12;;;;;;;5.30;4.25;;;12.10;96.30;;;;;;5066282;28;20611;-70
2022/09/02 03:36:42;;;;;;;5.68;4.88;;;12.00;96.30;;;;;;5068671;28;20616;-70
2022/09/02 03:39:13;;;;;;;5.20;4.07;;;12.00;96.30;;;;;;5058518;28;20688;-70
2022/09/02 03:41:44;;;;;;;6.57;4.10;;;12.00;96.40;;;;;;5064844;28;20206;-71
2022/09/02 03:44:13;;;;;;;6.03;4.30;;;12.00;96.50;;;;;;5061658;28;21216;-69
2022/09/02 03:46:44;;;;;;;4.70;3.73;;;11.90;96.50;;;;;;5056382;28;21922;-71
2022/09/02 03:49:13;;;;;;;6.60;3.93;;;11.90;96.60;;;;;;5073418;28;20213;-71
2022/09/02 03:51:43;;;;;;;4.30;3.53;;;11.90;96.60;;;;;;5091028;28;20202;-73
2022/09/02 03:54:12;;;;;;;10.77;4.60;;;11.90;96.50;;;;;;5078397;28;20222;-71
2022/09/02 03:56:42;;;;;;;4.10;3.70;;;11.90;96.60;;;;;;5091086;28;20193;-71
2022/09/02 03:59:14;;;;;;;4.10;3.70;;;11.90;96.60;;;;;;5091062;28;20186;-71
2022/09/02 04:01:44;;;;;;;3.80;3.40;;;11.80;96.70;;;;;;5074912;28;20199;-69
2022/09/02 04:04:14;;;;;;;5.30;4.03;;;11.80;96.80;;;;;;5059724;28;20675;-69
2022/09/02 04:06:51;;;;;;;3.70;3.37;;;11.70;96.90;;;;;;5051105;28;20575;-70
2022/09/02 04:09:21;;;;;;;5.23;3.47;;;11.60;96.80;;;;;;5062390;28;20201;-69
2022/09/02 04:11:50;;;;;;;4.00;3.40;;;11.60;96.80;;;;;;5074036;28;20214;-71
2022/09/02 04:14:19;;;;;;;5.10;3.63;;;11.60;96.90;;;;;;5074380;28;20672;-69
2022/09/02 04:16:49;;;;;;;4.40;3.67;;;11.50;96.90;;;;;;5075230;28;20191;-70
2022/09/02 04:19:18;;;;;;;4.27;3.80;;;11.50;97.00;;;;;;5064464;28;20669;-70
2022/09/02 04:21:47;;;;;;;6.40;3.90;;;11.50;97.10;;;;;;5062402;28;20604;-71
2022/09/02 04:24:16;;;;;;;3.87;3.47;;;11.50;97.10;;;;;;5066954;28;20205;-70
2022/09/02 04:26:48;;;;;;;4.83;3.43;;;11.40;97.10;;;;;;5063411;28;20549;-69
2022/09/02 04:29:19;;;;;;;4.33;3.50;;;11.40;97.10;;;;;;5064317;28;20676;-70
2022/09/02 04:31:52;;;;;;;3.60;3.30;;;11.40;97.20;;;;;;5070342;28;20664;-69
2022/09/02 04:34:22;;;;;;;5.00;3.73;;;11.40;97.30;;;;;;5074119;28;20571;-70
2022/09/02 04:36:52;;;;;;;4.00;3.50;;;11.30;97.30;;;;;;5073951;28;20195;-70
2022/09/02 04:39:21;;;;;;;5.20;3.60;;;11.30;97.30;;;;;;5062956;28;20218;-70
2022/09/02 04:41:52;;;;;;;4.93;3.67;;;11.30;97.30;;;;;;5071469;28;20207;-69
2022/09/02 04:44:21;;;;;;;5.00;4.27;;;11.30;97.40;;;;;;5073872;28;20210;-69
2022/09/02 04:46:52;;;;;;;6.13;4.47;;;11.30;97.50;;;;;;5069428;28;20206;-70
2022/09/02 04:49:23;;;;;;;6.93;4.70;;;11.30;97.40;;;;;;5066211;28;20203;-69
2022/09/02 04:51:54;;;;;;;4.93;3.90;;;11.30;97.30;;;;;;5069134;28;20217;-68
2022/09/02 04:54:24;;;;;;;4.97;3.40;;;11.40;97.30;;;;;;5064034;28;20222;-68
2022/09/02 04:56:56;;;;;;;5.93;3.93;;;11.30;97.30;;;;;;5066227;28;20199;-69
2022/09/02 04:59:26;;;;;;;4.07;3.67;;;11.30;97.40;;;;;;5062897;28;20246;-70
2022/09/02 05:02:05;;;;;;;5.23;3.80;;;11.30;97.40;;;;;;5063358;28;21963;-70
2022/09/02 05:04:34;;;;;;;6.27;3.60;;;11.40;97.50;;;;;;5062740;28;20219;-72
2022/09/02 05:07:05;;;;;;;4.10;3.70;;;11.40;97.50;;;;;;5069341;28;20223;-70
2022/09/02 05:09:40;;;;;;;3.70;3.40;;;11.30;97.60;;;;;;5066085;28;20194;-71
2022/09/02 05:12:10;;;;;;;4.10;3.50;;;11.30;97.70;;;;;;5085426;28;20549;-70
2022/09/02 05:14:47;;;;;;;6.33;3.50;;;11.30;97.70;;;;;;5063543;28;20225;-68
2022/09/02 05:17:19;;;;;;;3.67;3.30;;;11.30;97.70;;;;;;5060696;28;20226;-71
2022/09/02 05:19:49;;;;;;;4.47;3.40;;;11.30;97.70;;;;;;5064391;28;20214;-69
2022/09/02 05:22:18;;;;;;;4.87;3.30;;;11.30;97.80;;;;;;5082214;28;20219;-69
2022/09/02 05:24:47;;;;;;;6.47;3.30;;;11.30;97.80;;;;;;5090689;28;20203;-69
2022/09/02 05:27:16;;;;;;;3.50;3.07;;;11.30;98.00;;;;;;5090395;28;20241;-69
2022/09/02 05:29:47;;;;;;;4.17;3.57;;;11.30;98.10;;;;;;5089720;28;20195;-70
2022/09/02 05:32:21;;;;;;;4.07;3.60;;;11.30;98.20;;;;;;5088856;28;20187;-69
2022/09/02 05:34:52;;;;;;;3.60;3.23;;;11.30;98.30;;;;;;5088737;28;20210;-69
2022/09/02 05:37:20;;;;;;;3.90;3.43;;;11.30;98.30;;;;;;5093040;28;20676;-69
2022/09/02 05:39:49;;;;;;;3.90;3.30;;;11.30;98.30;;;;;;5093038;28;20201;-69
2022/09/02 05:42:19;;;;;;;5.37;3.50;;;11.40;98.40;;;;;;5084660;28;20194;-69
2022/09/02 05:44:51;;;;;;;4.97;3.03;;;11.30;98.40;;;;;;5088638;28;20202;-69
2022/09/02 05:47:25;;;;;;;4.03;3.63;;;11.30;98.50;;;;;;5092970;28;20214;-69
2022/09/02 05:49:54;;;;;;;5.25;3.97;;;11.30;98.70;;;;;;5091098;28;20182;-68
2022/09/02 05:52:24;;;;;;;5.33;4.40;;;11.30;98.80;;;;;;5077233;28;20194;-68
2022/09/02 05:54:55;;;;;;;3.93;3.53;;;11.40;98.80;;;;;;5085001;28;20214;-69
2022/09/02 05:57:24;;;;;;;6.00;3.70;;;11.40;99.00;;;;;;5073221;28;20219;-69
2022/09/02 06:00:06;;;;;;;4.00;3.60;;;11.40;99.00;;;;;;5085066;28;20198;-68
2022/09/02 06:02:43;;;;;;;4.23;3.87;;;11.40;99.30;;;;;;5094026;28;20182;-68
2022/09/02 06:05:19;;;;;;;5.23;3.90;;;11.50;99.40;;;;;;5082683;28;22401;-68
2022/09/02 06:07:58;;;;;;;5.80;4.27;;;11.60;99.50;;;;;;5072345;28;20206;-68
2022/09/02 06:10:27;;;;;;;6.67;4.07;;;11.70;99.60;;;;;;5072320;28;20218;-69
2022/09/02 06:12:56;;;;;;;6.13;4.03;;;11.80;99.80;;;;;;5072266;28;20197;-71
2022/09/02 06:15:29;;;;;;;5.13;4.03;;;11.90;99.90;;;;;;5072681;28;20215;-69
2022/09/02 06:18:02;;;;;;;6.18;5.03;;;11.90;99.90;;;;;;5092515;28;20221;-69
2022/09/02 06:20:33;;;;;;;12.17;6.80;;;12.00;99.90;;;;;;5092496;28;20660;-68
2022/09/02 06:23:03;;;;;;;13.60;8.90;;;12.00;99.90;;;;;;5092211;28;20656;-68
2022/09/02 06:25:35;;;;;;;15.00;9.80;;;12.10;99.90;;;;;;5083178;28;20191;-69
2022/09/02 06:28:05;;;;;;;15.68;9.88;;;12.30;99.90;;;;;;5092669;28;20210;-70
2022/09/02 06:30:40;;;;;;;11.60;8.38;;;12.40;99.90;;;;;;5090199;28;20202;-69
2022/09/02 06:33:10;;;;;;;10.83;7.87;;;12.60;99.90;;;;;;5074641;28;20206;-68
2022/09/02 06:35:44;;;;;;;7.78;5.07;;;12.70;99.90;;;;;;5072419;28;20226;-69
2022/09/02 06:38:18;;;;;;;7.70;3.67;;;12.80;99.90;;;;;;5071899;28;20211;-70
2022/09/02 06:40:50;;;;;;;4.53;3.05;;;12.90;99.90;;;;;;5073405;28;20669;-68
2022/09/02 06:43:24;;;;;;;5.35;2.63;;;13.20;99.30;;;;;;5092713;28;20186;-69
2022/09/02 06:46:16;;;;;;;5.70;2.80;;;13.30;99.00;;;;;;5091144;28;20656;-68
2022/09/02 06:48:49;;;;;;;3.30;2.47;;;13.50;98.70;;;;;;5088063;28;20219;-69
2022/09/02 06:51:21;;;;;;;5.75;2.80;;;13.70;98.70;;;;;;5083056;28;20194;-69
2022/09/02 06:53:51;;;;;;;4.05;2.72;;;13.80;98.60;;;;;;5083761;28;20195;-69
2022/09/02 06:56:21;;;;;;;2.70;2.35;;;13.90;98.40;;;;;;5076909;28;20214;-68
2022/09/02 06:58:50;;;;;;;2.90;2.20;;;14.00;98.50;;;;;;5092392;28;20206;-68
2022/09/02 07:01:19;;;;;;;3.88;2.20;;;14.10;98.30;;;;;;5075904;28;20199;-69
2022/09/02 07:06:39;;;;;;;2.92;2.20;;;14.50;97.90;;;;;;5073301;28;20191;-70
2022/09/02 07:09:10;;;;;;;3.22;2.03;;;14.70;97.70;;;;;;5071935;28;20211;-67
2022/09/02 07:11:40;;;;;;;2.83;2.15;;;14.80;97.60;;;;;;5070755;28;20244;-69
2022/09/02 07:14:09;;;;;;;3.33;2.38;;;15.00;97.40;;;;;;5073158;28;20680;-67
2022/09/02 07:16:43;;;;;;;5.85;2.45;;;15.20;96.50;;;;;;5086493;28;20218;-68
2022/09/02 07:19:14;;;;;;;3.30;2.10;;;15.40;96.50;;;;;;5084915;28;20199;-68
2022/09/02 07:21:49;;;;;;;4.50;1.80;;;15.50;96.50;;;;;;5092141;28;20560;-68
2022/09/02 07:24:20;;;;;;;4.07;2.22;;;15.70;96.10;;;;;;5086341;28;20187;-69
2022/09/02 07:26:49;;;;;;;4.80;2.00;;;15.80;95.90;;;;;;5090626;28;20559;-67
2022/09/02 07:29:23;;;;;;;4.00;2.17;;;15.90;95.80;;;;;;5092122;28;20179;-68
2022/09/02 07:31:52;;;;;;;3.17;1.90;;;16.00;95.50;;;;;;5076407;28;20187;-68
2022/09/02 07:34:22;;;;;;;3.38;2.10;;;16.10;95.50;;;;;;5071842;28;20195;-70
2022/09/02 07:36:52;;;;;;;3.05;1.92;;;16.30;95.50;;;;;;5071661;28;20581;-69
2022/09/02 07:39:22;;;;;;;3.72;1.80;;;16.40;95.60;;;;;;5090782;28;20569;-68
2022/09/02 07:41:51;;;;;;;4.47;1.80;;;16.50;95.50;;;;;;5096161;28;20190;-69
2022/09/02 07:44:23;;;;;;;4.22;1.70;;;16.70;94.70;;;;;;5096337;28;20553;-70
2022/09/02 07:46:54;;;;;;;3.42;1.80;;;16.80;94.70;;;;;;5092729;28;20198;-69
2022/09/02 07:49:26;;;;;;;4.57;1.65;;;17.10;93.90;;;;;;5096377;28;20193;-69
2022/09/02 07:51:56;;;;;;;6.50;2.10;;;17.60;92.30;;;;;;5094024;28;20198;-68
2022/09/02 07:54:26;;;;;;;5.13;1.83;;;17.90;91.90;;;;;;5093604;28;20202;-68
2022/09/02 07:56:56;;;;;;;4.55;1.88;;;17.90;92.20;;;;;;5095728;28;20703;-70
2022/09/02 07:59:25;;;;;;;4.82;1.65;;;18.20;90.90;;;;;;5095931;28;20209;-68
2022/09/02 08:01:57;;;;;;;3.83;1.50;;;18.40;90.90;;;;;;5090446;28;20564;-69
2022/09/02 08:04:28;;;;;;;3.20;1.75;;;18.50;90.70;;;;;;5095679;28;20195;-68
2022/09/02 08:06:57;;;;;;;2.67;1.80;;;18.60;91.00;;;;;;5096013;28;20202;-68
2022/09/02 08:09:25;;;;;;;4.47;1.85;;;18.90;87.30;;;;;;5096745;28;20538;-68
2022/09/02 08:11:54;;;;;;;2.42;1.65;;;19.10;86.70;;;;;;5078601;28;20563;-69
2022/09/02 08:14:27;;;;;;;2.65;1.63;;;19.20;87.50;;;;;;5076340;28;20202;-68
2022/09/02 08:16:57;;;;;;;4.43;1.27;;;19.30;87.30;;;;;;5086466;28;20234;-69
2022/09/02 08:19:27;;;;;;;2.95;1.50;;;19.50;86.40;;;;;;5076576;28;20199;-69
2022/09/02 08:22:01;;;;;;;2.95;1.42;;;19.60;86.00;;;;;;5076094;28;20195;-68
2022/09/02 08:24:31;;;;;;;4.45;1.67;;;19.80;85.00;;;;;;5078547;28;20204;-69
2022/09/02 08:27:00;;;;;;;2.08;1.35;;;20.00;82.70;;;;;;5095119;28;20195;-68
2022/09/02 08:29:29;;;;;;;5.55;1.33;;;20.10;83.90;;;;;;5095329;28;20190;-68
2022/09/02 08:31:57;;;;;;;3.28;1.40;;;20.20;81.50;;;;;;5082991;28;20203;-68
2022/09/02 08:34:28;;;;;;;5.28;1.40;;;20.30;83.10;;;;;;5089704;28;20199;-69
2022/09/02 08:36:57;;;;;;;3.22;1.52;;;20.30;82.50;;;;;;5096090;28;20229;-69
2022/09/02 08:39:26;;;;;;;3.25;1.33;;;20.40;83.50;;;;;;5096178;28;20692;-69
2022/09/02 08:42:04;;;;;;;2.15;1.20;;;20.50;82.40;;;;;;5085431;28;20210;-69
2022/09/02 08:44:37;;;;;;;2.75;1.33;;;20.80;81.40;;;;;;5075913;28;20194;-68
2022/09/02 08:47:12;;;;;;;2.63;1.30;;;21.00;79.50;;;;;;5084989;28;20234;-69
2022/09/02 08:49:45;;;;;;;1.98;1.45;;;21.00;79.00;;;;;;5096220;28;20186;-68
2022/09/02 08:52:20;;;;;;;2.00;1.20;;;21.20;79.50;;;;;;5082931;28;20206;-70
2022/09/02 08:54:54;;;;;;;4.38;1.30;;;21.30;79.10;;;;;;5095944;28;20652;-68
2022/09/02 08:57:25;;;;;;;3.25;1.20;;;21.40;76.60;;;;;;5096062;28;20222;-68
2022/09/02 08:59:55;;;;;;;2.83;1.10;;;21.40;75.40;;;;;;5095905;28;20194;-69
2022/09/02 09:02:29;;;;;;;2.65;1.10;;;21.40;75.80;;;;;;5092561;28;20194;-68
2022/09/02 09:05:14;;;;;;;2.45;1.10;;;21.60;74.70;;;;;;5095775;28;20640;-68
2022/09/02 09:07:56;;;;;;;2.17;1.05;;;21.70;74.10;;;;;;5095766;28;20652;-68
2022/09/02 09:10:32;;;;;;;2.50;1.42;;;21.70;75.50;;;;;;5095605;28;20194;-68
2022/09/02 09:13:15;;;;;;;2.58;1.33;;;21.80;75.90;;;;;;5092765;28;20202;-68
2022/09/02 09:15:50;;;;;;;4.60;1.17;;;22.00;74.80;;;;;;5095585;28;20194;-68
2022/09/02 09:18:24;;;;;;;3.00;1.15;;;22.30;70.80;;;;;;5078831;28;20230;-68
2022/09/02 09:20:54;;;;;;;2.97;1.05;;;22.40;71.50;;;;;;5095383;28;20187;-69
2022/09/02 09:23:29;;;;;;;2.22;1.00;;;22.40;70.40;;;;;;5095220;28;20198;-68
2022/09/02 09:26:08;;;;;;;1.17;0.98;;;22.40;72.30;;;;;;5095380;28;20186;-67
2022/09/02 09:28:42;;;;;;;1.77;1.00;;;22.50;71.10;;;;;;5088669;28;20209;-67
2022/09/02 09:31:14;;;;;;;2.17;0.93;;;22.60;71.90;;;;;;5094854;28;20187;-68
2022/09/02 09:33:56;;;;;;;2.80;1.15;;;22.70;72.90;;;;;;5085147;28;20194;-68
2022/09/02 09:36:52;;;;;;;3.35;1.10;;;22.90;70.90;;;;;;5095140;28;20679;-71
2022/09/02 09:39:26;;;;;;;2.35;1.20;;;23.00;68.20;;;;;;5094903;28;20676;-69
2022/09/02 09:41:57;;;;;;;6.10;1.27;;;23.30;67.70;;;;;;5095234;28;20189;-72
2022/09/02 09:44:45;;;;;;;1.40;1.00;;;23.50;69.20;;;;;;5082054;28;20195;-70
2022/09/02 09:47:18;;;;;;;1.38;0.90;;;23.70;68.10;;;;;;5075220;28;20587;-70
2022/09/02 09:49:48;;;;;;;2.75;0.80;;;23.80;66.00;;;;;;5072448;28;20195;-69
2022/09/02 09:52:29;;;;;;;1.92;0.80;;;23.80;62.70;;;;;;5073899;28;20584;-69
2022/09/02 09:55:16;;;;;;;2.42;0.90;;;23.90;60.00;;;;;;5074806;28;20179;-69
2022/09/02 09:57:53;;;;;;;1.40;0.80;;;23.80;60.40;;;;;;5076041;28;20735;-69
2022/09/02 10:00:28;;;;;;;3.33;1.10;;;23.80;62.70;;;;;;5074872;28;20210;-69
2022/09/02 10:02:59;;;;;;;2.17;1.05;;;24.00;63.10;;;;;;5073608;28;20186;-69
2022/09/02 10:05:32;;;;;;;7.43;2.97;;;24.20;61.90;;;;;;5084125;28;20564;-69
2022/09/02 10:08:04;;;;;;;2.17;0.90;;;24.30;61.00;;;;;;5080778;28;20229;-67
2022/09/02 10:10:57;;;;;;;2.05;0.80;;;24.30;58.90;;;;;;5094449;28;20191;-72
2022/09/02 10:13:28;;;;;;;2.70;0.65;;;24.20;57.50;;;;;;5094419;28;20195;-70
2022/09/02 10:16:26;;;;;;;1.80;0.80;;;24.10;56.50;;;;;;5090412;28;20202;-71
2022/09/02 10:18:58;;;;;;;17.98;3.13;;;24.00;57.30;;;;;;5086264;28;20225;-70
2022/09/02 10:21:38;;;;;;;0.98;0.80;;;24.30;58.20;;;;;;5090175;28;20201;-71
2022/09/02 10:24:37;;;;;;;2.30;0.90;;;24.40;55.50;;;;;;5089255;28;20199;-70
2022/09/02 10:27:09;;;;;;;1.48;0.90;;;24.20;56.20;;;;;;5080217;28;20218;-69
2022/09/02 10:29:50;;;;;;;1.90;0.82;;;24.00;56.80;;;;;;5086087;28;20665;-69
2022/09/02 10:32:27;;;;;;;1.00;0.80;;;24.10;55.80;;;;;;5080827;28;20199;-70
2022/09/02 10:35:09;;;;;;;1.33;0.80;;;23.90;55.70;;;;;;5073400;28;20549;-69
2022/09/02 10:38:00;;;;;;;2.10;1.00;;;23.80;56.80;;;;;;5072878;28;20210;-70
2022/09/02 10:40:36;;;;;;;2.72;0.90;;;23.90;57.30;;;;;;5075919;28;20203;-69
2022/09/02 10:43:06;;;;;;;2.55;0.80;;;24.10;56.50;;;;;;5084647;28;20202;-69
2022/09/02 10:45:42;;;;;;;3.00;0.80;;;24.40;56.20;;;;;;5083811;28;20190;-70
2022/09/02 10:48:27;;;;;;;2.40;0.93;;;24.40;57.20;;;;;;5074187;28;20226;-69
2022/09/02 10:51:02;;;;;;;2.10;1.05;;;24.60;55.80;;;;;;5089904;28;20201;-69
2022/09/02 10:53:43;;;;;;;1.35;0.90;;;24.70;55.80;;;;;;5078372;28;20213;-69
2022/09/02 10:56:20;;;;;;;1.50;0.90;;;24.70;55.60;;;;;;5080331;28;20202;-70
2022/09/02 10:58:55;;;;;;;1.13;0.70;;;24.80;55.20;;;;;;5073189;28;20222;-70
2022/09/02 11:01:28;;;;;;;1.40;0.90;;;24.90;56.90;;;;;;5072096;28;20202;-71
2022/09/02 11:04:05;;;;;;;1.27;0.57;;;25.20;55.20;;;;;;5075349;28;20195;-71
2022/09/02 11:06:39;;;;;;;1.40;0.85;;;25.40;55.50;;;;;;5093537;28;20652;-68
2022/09/02 11:09:33;;;;;;;1.30;1.00;;;25.60;54.60;;;;;;5079148;28;20195;-67
2022/09/02 11:12:09;;;;;;;1.05;0.90;;;25.50;53.50;;;;;;5077411;28;20562;-67
2022/09/02 11:15:39;;;;;;;0.80;0.70;;;25.40;52.80;;;;;;5093085;28;20533;-68
2022/09/02 11:19:02;;;;;;;3.15;0.98;;;25.30;53.80;;;;;;5085171;28;20217;-67
2022/09/02 11:21:42;;;;;;;1.52;0.90;;;25.30;54.10;;;;;;5092152;28;20194;-67
2022/09/02 11:24:16;;;;;;;2.05;1.00;;;25.30;54.10;;;;;;5079087;28;20209;-68
2022/09/02 11:26:53;;;;;;;1.58;0.95;;;25.40;54.40;;;;;;5089661;28;20203;-69
2022/09/02 11:29:33;;;;;;;1.20;0.70;;;25.60;53.00;;;;;;5074884;28;20567;-67
2022/09/02 11:32:10;;;;;;;2.33;1.00;;;25.50;53.30;;;;;;5072833;28;20194;-68
2022/09/02 11:34:44;;;;;;;1.45;0.80;;;25.30;53.90;;;;;;5079754;28;20213;-66
2022/09/02 11:37:27;;;;;;;3.08;0.90;;;25.50;53.50;;;;;;5093113;28;20206;-68
2022/09/02 11:40:00;;;;;;;1.02;0.93;;;25.60;53.90;;;;;;5093070;28;20221;-69
2022/09/02 11:43:01;;;;;;;2.05;0.80;;;25.90;57.30;;;;;;5085565;28;20198;-68
2022/09/02 11:45:53;;;;;;;2.38;0.85;;;26.10;54.30;;;;;;5089713;28;20202;-67
2022/09/02 11:48:37;;;;;;;1.50;0.98;;;26.30;54.50;;;;;;5093218;28;20217;-68
2022/09/02 11:51:28;;;;;;;1.10;0.73;;;26.40;53.50;;;;;;5089900;28;22093;-67
2022/09/02 11:54:01;;;;;;;1.35;0.95;;;26.40;52.70;;;;;;5072204;28;20657;-67
2022/09/02 11:56:39;;;;;;;2.28;0.88;;;26.30;51.30;;;;;;5072716;28;20183;-68
2022/09/02 11:59:08;;;;;;;0.98;0.88;;;26.20;52.00;;;;;;5071881;28;20229;-68
2022/09/02 12:01:48;;;;;;;2.17;1.40;;;26.20;51.90;;;;;;5072693;28;20553;-67
2022/09/02 12:04:24;;;;;;;2.60;1.13;;;26.30;55.50;;;;;;5073141;28;20677;-68
2022/09/02 12:07:24;;;;;;;1.50;0.98;;;26.50;51.60;;;;;;5075907;28;20214;-68
2022/09/02 12:10:02;;;;;;;1.73;1.00;;;26.50;54.00;;;;;;5093011;28;20198;-68
2022/09/02 12:13:04;;;;;;;1.63;1.00;;;26.80;53.60;;;;;;5075768;28;20595;-68
2022/09/02 12:15:46;;;;;;;3.28;0.80;;;26.90;52.30;;;;;;5045930;28;20203;-68
2022/09/02 12:18:30;;;;;;;2.83;0.90;;;27.00;55.00;;;;;;5071319;28;20684;-68
2022/09/02 12:21:11;;;;;;;3.22;0.85;;;26.90;51.70;;;;;;5070833;28;20229;-68
2022/09/02 12:24:19;;;;;;;2.08;0.80;;;26.90;52.70;;;;;;5072753;28;20179;-68
2022/09/02 12:27:18;;;;;;;4.00;1.10;;;27.00;52.40;;;;;;5073852;28;20203;-68
2022/09/02 12:29:47;;;;;;;1.27;0.90;;;27.00;52.60;;;;;;5076421;28;20207;-68
2022/09/02 12:33:08;;;;;;;1.38;0.90;;;27.00;51.90;;;;;;5092306;28;20186;-68
2022/09/02 12:35:56;;;;;;;1.25;0.80;;;26.60;52.00;;;;;;5074286;28;20196;-68
2022/09/02 12:38:29;;;;;;;2.35;1.13;;;26.70;53.30;;;;;;5079001;28;20222;-69
2022/09/02 12:41:20;;;;;;;5.13;2.10;;;26.90;53.60;;;;;;5087178;28;20218;-68
2022/09/02 12:44:01;;;;;;;5.55;2.80;;;27.00;51.30;;;;;;5096257;28;20183;-68
2022/09/02 12:46:50;;;;;;;4.18;1.02;;;27.20;52.00;;;;;;5090274;28;20205;-67
2022/09/02 12:49:33;;;;;;;1.33;0.90;;;27.20;51.30;;;;;;5096101;28;20554;-68
2022/09/02 12:52:05;;;;;;;1.20;1.00;;;27.20;54.40;;;;;;5084856;28;20206;-68
2022/09/02 12:54:46;;;;;;;4.72;0.90;;;27.20;53.20;;;;;;5080239;28;20195;-68
2022/09/02 12:57:17;;;;;;;2.95;1.00;;;27.20;53.10;;;;;;5081936;28;20218;-68
2022/09/02 12:59:47;;;;;;;2.45;0.82;;;27.40;52.00;;;;;;5075628;28;20223;-68
2022/09/02 13:02:43;;;;;;;4.22;1.27;;;27.30;54.50;;;;;;5080460;28;20194;-68
2022/09/02 13:05:20;;;;;;;1.45;0.80;;;27.40;53.40;;;;;;5091996;28;20249;-71
2022/09/02 13:08:49;;;;;;;2.67;1.02;;;27.50;50.90;;;;;;5095583;28;20210;-70
2022/09/02 13:12:03;;;;;;;4.55;1.10;;;27.40;50.70;;;;;;5010788;28;20212;-71
2022/09/02 13:14:52;;;;;;;4.18;1.15;;;27.20;51.30;;;;;;5029821;28;20209;-70
2022/09/02 13:17:42;;;;;;;2.38;0.90;;;26.80;52.50;;;;;;5079354;28;20249;-71
2022/09/02 13:20:43;;;;;;;2.90;1.05;;;26.80;51.70;;;;;;5079939;28;20215;-71
2022/09/02 13:23:43;;;;;;;4.55;1.30;;;26.80;52.50;;;;;;5075174;28;20202;-71
2022/09/02 13:26:47;;;;;;;1.42;1.00;;;26.60;54.10;;;;;;5087069;28;20574;-70